sensor_id;sensor_type;location;lat;lon;timestamp;pressure;altitude;pressure_sealevel;temperature;humidity
75521;BME280;64102;48.628;9.002;2022-11-06T00:00:09;96423.72;;;2.62;96.00
75521;BME280;64102;48.628;9.002;2022-11-06T00:02:35;96421.75;;;2.67;95.85
75521;BME280;64102;48.628;9.002;2022-11-06T00:05:00;96416.41;;;2.72;95.92
75521;BME280;64102;48.628;9.002;2022-11-06T00:07:47;96418.03;;;2.72;95.64
75521;BME280;64102;48.628;9.002;2022-11-06T00:10:13;96419.78;;;2.72;95.47
75521;BME280;64102;48.628;9.002;2022-11-06T00:12:38;96420.81;;;2.68;95.25
75521;BME280;64102;48.628;9.002;2022-11-06T00:15:04;96422.22;;;2.74;95.59
75521;BME280;64102;48.628;9.002;2022-11-06T00:17:30;96421.91;;;2.80;95.00
75521;BME280;64102;48.628;9.002;2022-11-06T00:19:55;96425.75;;;2.87;94.87
75521;BME280;64102;48.628;9.002;2022-11-06T00:22:20;96425.03;;;2.85;94.81
75521;BME280;64102;48.628;9.002;2022-11-06T00:24:46;96421.31;;;2.75;95.02
75521;BME280;64102;48.628;9.002;2022-11-06T00:27:13;96415.56;;;2.71;94.31
75521;BME280;64102;48.628;9.002;2022-11-06T00:29:38;96409.97;;;2.64;94.64
75521;BME280;64102;48.628;9.002;2022-11-06T00:32:04;96403.59;;;2.57;95.12
75521;BME280;64102;48.628;9.002;2022-11-06T00:34:29;96398.09;;;2.49;95.01
75521;BME280;64102;48.628;9.002;2022-11-06T00:36:54;96399.63;;;2.36;94.77
75521;BME280;64102;48.628;9.002;2022-11-06T00:39:20;96397.50;;;2.44;95.23
75521;BME280;64102;48.628;9.002;2022-11-06T00:41:45;96415.06;;;2.33;95.08
75521;BME280;64102;48.628;9.002;2022-11-06T00:44:11;96415.69;;;2.21;95.01
75521;BME280;64102;48.628;9.002;2022-11-06T00:46:36;96420.28;;;2.14;95.10
75521;BME280;64102;48.628;9.002;2022-11-06T00:49:01;96422.16;;;2.11;95.19
75521;BME280;64102;48.628;9.002;2022-11-06T00:51:31;96431.56;;;1.93;94.85
75521;BME280;64102;48.628;9.002;2022-11-06T00:53:59;96430.25;;;1.69;94.94
75521;BME280;64102;48.628;9.002;2022-11-06T00:56:26;96425.25;;;1.50;93.74
75521;BME280;64102;48.628;9.002;2022-11-06T00:58:51;96425.31;;;1.49;94.82
75521;BME280;64102;48.628;9.002;2022-11-06T01:01:25;96426.09;;;1.33;94.28
75521;BME280;64102;48.628;9.002;2022-11-06T01:03:56;96428.06;;;1.10;94.13
75521;BME280;64102;48.628;9.002;2022-11-06T01:06:24;96433.09;;;0.75;93.03
75521;BME280;64102;48.628;9.002;2022-11-06T01:08:51;96431.53;;;0.90;96.18
75521;BME280;64102;48.628;9.002;2022-11-06T01:11:31;96430.25;;;0.81;96.31
75521;BME280;64102;48.628;9.002;2022-11-06T01:13:58;96419.22;;;1.00;96.76
75521;BME280;64102;48.628;9.002;2022-11-06T01:16:25;96421.00;;;1.33;97.32
75521;BME280;64102;48.628;9.002;2022-11-06T01:18:51;96412.94;;;1.43;97.11
75521;BME280;64102;48.628;9.002;2022-11-06T01:21:22;96415.69;;;1.38;96.69
75521;BME280;64102;48.628;9.002;2022-11-06T01:23:57;96415.66;;;1.21;95.94
75521;BME280;64102;48.628;9.002;2022-11-06T01:26:23;96414.59;;;1.08;95.47
75521;BME280;64102;48.628;9.002;2022-11-06T01:28:50;96431.13;;;0.80;93.76
75521;BME280;64102;48.628;9.002;2022-11-06T01:31:18;96439.84;;;0.58;94.12
75521;BME280;64102;48.628;9.002;2022-11-06T01:33:44;96436.41;;;0.40;94.05
75521;BME280;64102;48.628;9.002;2022-11-06T01:36:11;96432.69;;;0.28;94.00
75521;BME280;64102;48.628;9.002;2022-11-06T01:38:41;96430.44;;;0.41;95.92
75521;BME280;64102;48.628;9.002;2022-11-06T01:41:07;96429.53;;;0.61;96.23
75521;BME280;64102;48.628;9.002;2022-11-06T01:46:10;96428.13;;;0.72;96.12
75521;BME280;64102;48.628;9.002;2022-11-06T01:48:36;96426.50;;;0.71;95.99
75521;BME280;64102;48.628;9.002;2022-11-06T01:51:04;96423.06;;;0.72;95.64
75521;BME280;64102;48.628;9.002;2022-11-06T01:53:30;96421.03;;;0.62;95.59
75521;BME280;64102;48.628;9.002;2022-11-06T01:56:04;96417.88;;;0.57;95.67
75521;BME280;64102;48.628;9.002;2022-11-06T01:58:33;96425.50;;;0.57;95.50
75521;BME280;64102;48.628;9.002;2022-11-06T02:00:59;96428.16;;;0.54;95.50
75521;BME280;64102;48.628;9.002;2022-11-06T02:03:25;96425.97;;;0.46;95.58
75521;BME280;64102;48.628;9.002;2022-11-06T02:05:51;96422.69;;;0.44;95.65
75521;BME280;64102;48.628;9.002;2022-11-06T02:08:18;96421.88;;;0.43;95.63
75521;BME280;64102;48.628;9.002;2022-11-06T02:10:45;96414.88;;;0.49;95.46
75521;BME280;64102;48.628;9.002;2022-11-06T02:13:15;96405.03;;;0.60;95.67
75521;BME280;64102;48.628;9.002;2022-11-06T02:18:35;96402.66;;;0.38;95.47
75521;BME280;64102;48.628;9.002;2022-11-06T02:23:54;96396.38;;;1.00;97.53
75521;BME280;64102;48.628;9.002;2022-11-06T02:26:45;96395.91;;;0.92;96.89
75521;BME280;64102;48.628;9.002;2022-11-06T02:29:23;96388.75;;;0.64;95.52
75521;BME280;64102;48.628;9.002;2022-11-06T02:31:52;96385.34;;;0.65;96.09
75521;BME280;64102;48.628;9.002;2022-11-06T02:34:23;96377.94;;;0.60;96.00
75521;BME280;64102;48.628;9.002;2022-11-06T02:36:53;96377.72;;;0.46;95.95
75521;BME280;64102;48.628;9.002;2022-11-06T02:39:22;96368.22;;;0.32;95.59
75521;BME280;64102;48.628;9.002;2022-11-06T02:41:51;96369.03;;;0.52;96.12
75521;BME280;64102;48.628;9.002;2022-11-06T02:44:21;96357.84;;;0.37;95.56
75521;BME280;64102;48.628;9.002;2022-11-06T02:46:51;96353.41;;;0.59;96.86
75521;BME280;64102;48.628;9.002;2022-11-06T02:49:28;96347.94;;;0.85;96.88
75521;BME280;64102;48.628;9.002;2022-11-06T02:51:58;96350.69;;;0.81;97.04
75521;BME280;64102;48.628;9.002;2022-11-06T02:54:26;96344.16;;;0.58;96.22
75521;BME280;64102;48.628;9.002;2022-11-06T02:56:56;96345.56;;;0.47;95.89
75521;BME280;64102;48.628;9.002;2022-11-06T02:59:28;96345.16;;;0.37;95.39
75521;BME280;64102;48.628;9.002;2022-11-06T03:02:01;96325.78;;;0.17;94.71
75521;BME280;64102;48.628;9.002;2022-11-06T03:04:34;96321.75;;;0.13;95.69
75521;BME280;64102;48.628;9.002;2022-11-06T03:07:05;96319.59;;;0.23;96.43
75521;BME280;64102;48.628;9.002;2022-11-06T03:09:33;96312.91;;;0.22;96.39
75521;BME280;64102;48.628;9.002;2022-11-06T03:17:17;96328.53;;;0.13;95.69
75521;BME280;64102;48.628;9.002;2022-11-06T03:19:54;96321.44;;;0.00;94.83
75521;BME280;64102;48.628;9.002;2022-11-06T03:22:39;96331.22;;;-0.09;95.27
75521;BME280;64102;48.628;9.002;2022-11-06T03:30:57;96317.47;;;0.14;97.44
75521;BME280;64102;48.628;9.002;2022-11-06T03:33:31;96308.72;;;0.02;97.44
75521;BME280;64102;48.628;9.002;2022-11-06T03:36:21;96313.25;;;-0.23;97.09
75521;BME280;64102;48.628;9.002;2022-11-06T03:39:11;96316.25;;;-0.34;96.51
75521;BME280;64102;48.628;9.002;2022-11-06T03:44:12;96305.69;;;-0.43;96.77
75521;BME280;64102;48.628;9.002;2022-11-06T03:46:59;96308.69;;;-0.35;97.13
75521;BME280;64102;48.628;9.002;2022-11-06T03:49:39;96308.59;;;-0.53;96.75
75521;BME280;64102;48.628;9.002;2022-11-06T03:52:09;96300.66;;;-0.64;96.34
75521;BME280;64102;48.628;9.002;2022-11-06T03:54:46;96303.88;;;-0.60;96.10
75521;BME280;64102;48.628;9.002;2022-11-06T03:59:50;96284.84;;;-0.50;95.95
75521;BME280;64102;48.628;9.002;2022-11-06T04:02:17;96284.84;;;-0.50;96.77
75521;BME280;64102;48.628;9.002;2022-11-06T04:04:54;96286.91;;;-0.58;95.88
75521;BME280;64102;48.628;9.002;2022-11-06T04:07:24;96275.41;;;-0.28;97.02
75521;BME280;64102;48.628;9.002;2022-11-06T04:09:55;96267.03;;;-0.30;97.34
75521;BME280;64102;48.628;9.002;2022-11-06T04:12:42;96261.56;;;-0.21;97.42
75521;BME280;64102;48.628;9.002;2022-11-06T04:15:31;96252.91;;;-0.17;97.37
75521;BME280;64102;48.628;9.002;2022-11-06T04:17:57;96259.22;;;-0.25;97.25
75521;BME280;64102;48.628;9.002;2022-11-06T04:20:23;96254.72;;;-0.37;96.94
75521;BME280;64102;48.628;9.002;2022-11-06T04:23:19;96241.16;;;-0.36;97.22
75521;BME280;64102;48.628;9.002;2022-11-06T04:28:48;96242.09;;;-0.39;96.84
75521;BME280;64102;48.628;9.002;2022-11-06T04:31:39;96241.28;;;-0.58;95.84
75521;BME280;64102;48.628;9.002;2022-11-06T04:34:13;96238.47;;;-0.52;96.70
75521;BME280;64102;48.628;9.002;2022-11-06T04:36:46;96239.56;;;-0.39;95.98
75521;BME280;64102;48.628;9.002;2022-11-06T04:39:22;96241.28;;;-0.39;95.14
75521;BME280;64102;48.628;9.002;2022-11-06T04:42:39;96252.16;;;-0.56;94.22
75521;BME280;64102;48.628;9.002;2022-11-06T04:45:22;96245.56;;;-0.79;94.36
75521;BME280;64102;48.628;9.002;2022-11-06T04:47:50;96228.31;;;-0.89;93.83
75521;BME280;64102;48.628;9.002;2022-11-06T04:50:18;96225.66;;;-1.07;94.03
75521;BME280;64102;48.628;9.002;2022-11-06T04:52:45;96228.72;;;-1.19;94.43
75521;BME280;64102;48.628;9.002;2022-11-06T04:55:12;96227.06;;;-1.20;95.84
75521;BME280;64102;48.628;9.002;2022-11-06T04:57:37;96220.56;;;-1.25;95.80
75521;BME280;64102;48.628;9.002;2022-11-06T05:00:03;96226.50;;;-1.26;95.83
75521;BME280;64102;48.628;9.002;2022-11-06T05:02:29;96241.03;;;-1.11;95.93
75521;BME280;64102;48.628;9.002;2022-11-06T05:04:54;96244.00;;;-1.02;96.26
75521;BME280;64102;48.628;9.002;2022-11-06T05:07:19;96250.59;;;-0.98;96.79
75521;BME280;64102;48.628;9.002;2022-11-06T05:09:45;96256.94;;;-1.08;96.36
75521;BME280;64102;48.628;9.002;2022-11-06T05:12:10;96258.41;;;-1.22;95.53
75521;BME280;64102;48.628;9.002;2022-11-06T05:14:36;96260.28;;;-1.27;95.54
75521;BME280;64102;48.628;9.002;2022-11-06T05:17:01;96250.41;;;-1.33;95.38
75521;BME280;64102;48.628;9.002;2022-11-06T05:19:26;96251.75;;;-1.45;95.31
75521;BME280;64102;48.628;9.002;2022-11-06T05:21:52;96256.16;;;-1.50;95.79
75521;BME280;64102;48.628;9.002;2022-11-06T05:24:36;96257.63;;;-1.45;96.36
75521;BME280;64102;48.628;9.002;2022-11-06T05:27:01;96262.56;;;-1.42;96.81
75521;BME280;64102;48.628;9.002;2022-11-06T05:29:27;96266.75;;;-1.20;97.03
75521;BME280;64102;48.628;9.002;2022-11-06T05:31:52;96269.09;;;-1.16;97.02
75521;BME280;64102;48.628;9.002;2022-11-06T05:34:18;96274.91;;;-1.14;97.71
75521;BME280;64102;48.628;9.002;2022-11-06T05:36:43;96264.78;;;-1.14;96.78
75521;BME280;64102;48.628;9.002;2022-11-06T05:39:08;96251.31;;;-1.14;97.05
75521;BME280;64102;48.628;9.002;2022-11-06T05:41:34;96250.63;;;-1.18;96.68
75521;BME280;64102;48.628;9.002;2022-11-06T05:43:59;96256.41;;;-1.16;96.40
75521;BME280;64102;48.628;9.002;2022-11-06T05:46:25;96254.59;;;-1.32;95.72
75521;BME280;64102;48.628;9.002;2022-11-06T05:48:50;96254.69;;;-1.34;96.39
75521;BME280;64102;48.628;9.002;2022-11-06T05:51:15;96254.09;;;-1.41;96.10
75521;BME280;64102;48.628;9.002;2022-11-06T05:53:41;96249.91;;;-1.42;96.51
75521;BME280;64102;48.628;9.002;2022-11-06T05:56:06;96243.91;;;-1.39;96.00
75521;BME280;64102;48.628;9.002;2022-11-06T05:58:32;96251.25;;;-1.53;95.52
75521;BME280;64102;48.628;9.002;2022-11-06T06:00:58;96251.56;;;-1.61;95.56
75521;BME280;64102;48.628;9.002;2022-11-06T06:03:24;96245.13;;;-1.69;96.01
75521;BME280;64102;48.628;9.002;2022-11-06T06:05:50;96238.22;;;-1.86;95.51
75521;BME280;64102;48.628;9.002;2022-11-06T06:08:16;96246.16;;;-1.95;95.69
75521;BME280;64102;48.628;9.002;2022-11-06T06:10:46;96254.88;;;-2.02;95.15
75521;BME280;64102;48.628;9.002;2022-11-06T06:13:12;96264.50;;;-1.90;96.20
75521;BME280;64102;48.628;9.002;2022-11-06T06:15:38;96268.50;;;-1.85;96.51
75521;BME280;64102;48.628;9.002;2022-11-06T06:18:05;96250.03;;;-1.87;96.05
75521;BME280;64102;48.628;9.002;2022-11-06T06:20:30;96236.47;;;-1.84;96.23
75521;BME280;64102;48.628;9.002;2022-11-06T06:22:57;96221.28;;;-1.84;96.51
75521;BME280;64102;48.628;9.002;2022-11-06T06:25:23;96222.19;;;-1.65;96.50
75521;BME280;64102;48.628;9.002;2022-11-06T06:27:50;96227.41;;;-1.69;96.08
75521;BME280;64102;48.628;9.002;2022-11-06T06:30:15;96231.19;;;-1.58;95.88
75521;BME280;64102;48.628;9.002;2022-11-06T06:32:41;96226.63;;;-1.70;94.43
75521;BME280;64102;48.628;9.002;2022-11-06T06:35:06;96234.03;;;-1.65;94.64
75521;BME280;64102;48.628;9.002;2022-11-06T06:37:32;96223.00;;;-1.64;93.52
75521;BME280;64102;48.628;9.002;2022-11-06T06:39:57;96227.44;;;-1.49;94.16
75521;BME280;64102;48.628;9.002;2022-11-06T06:42:22;96230.16;;;-1.33;93.52
75521;BME280;64102;48.628;9.002;2022-11-06T06:44:48;96226.81;;;-1.14;93.23
75521;BME280;64102;48.628;9.002;2022-11-06T06:47:13;96221.53;;;-0.70;92.94
75521;BME280;64102;48.628;9.002;2022-11-06T06:49:43;96221.81;;;-0.20;91.63
75521;BME280;64102;48.628;9.002;2022-11-06T06:52:08;96212.44;;;0.18;90.50
75521;BME280;64102;48.628;9.002;2022-11-06T06:54:34;96209.44;;;0.78;89.69
75521;BME280;64102;48.628;9.002;2022-11-06T06:56:59;96205.88;;;1.15;88.79
75521;BME280;64102;48.628;9.002;2022-11-06T06:59:26;96206.97;;;2.21;85.75
75521;BME280;64102;48.628;9.002;2022-11-06T07:01:52;96199.72;;;2.73;82.93
75521;BME280;64102;48.628;9.002;2022-11-06T07:04:17;96197.53;;;3.11;83.77
75521;BME280;64102;48.628;9.002;2022-11-06T07:06:43;96188.44;;;4.30;79.41
75521;BME280;64102;48.628;9.002;2022-11-06T07:09:08;96178.00;;;4.60;79.33
75521;BME280;64102;48.628;9.002;2022-11-06T07:11:33;96167.09;;;4.31;81.50
75521;BME280;64102;48.628;9.002;2022-11-06T07:13:59;96172.53;;;4.12;79.77
75521;BME280;64102;48.628;9.002;2022-11-06T07:16:25;96179.53;;;3.96;79.70
75521;BME280;64102;48.628;9.002;2022-11-06T07:18:52;96165.50;;;3.89;78.16
75521;BME280;64102;48.628;9.002;2022-11-06T07:21:17;96160.63;;;3.72;78.90
75521;BME280;64102;48.628;9.002;2022-11-06T07:23:42;96152.16;;;3.98;75.96
75521;BME280;64102;48.628;9.002;2022-11-06T07:26:08;96145.63;;;4.33;77.85
75521;BME280;64102;48.628;9.002;2022-11-06T07:28:34;96137.31;;;4.17;74.14
75521;BME280;64102;48.628;9.002;2022-11-06T07:31:01;96140.66;;;4.44;76.74
75521;BME280;64102;48.628;9.002;2022-11-06T07:33:27;96139.56;;;5.97;73.55
75521;BME280;64102;48.628;9.002;2022-11-06T07:35:53;96142.16;;;6.89;68.48
75521;BME280;64102;48.628;9.002;2022-11-06T07:38:18;96132.63;;;7.25;65.37
75521;BME280;64102;48.628;9.002;2022-11-06T07:40:43;96133.81;;;7.32;65.34
75521;BME280;64102;48.628;9.002;2022-11-06T07:43:10;96120.44;;;8.46;61.97
75521;BME280;64102;48.628;9.002;2022-11-06T07:45:37;96111.88;;;8.25;62.65
75521;BME280;64102;48.628;9.002;2022-11-06T07:48:03;96119.03;;;9.04;60.90
75521;BME280;64102;48.628;9.002;2022-11-06T07:50:29;96121.44;;;8.96;59.96
75521;BME280;64102;48.628;9.002;2022-11-06T07:52:55;96109.28;;;9.97;61.75
75521;BME280;64102;48.628;9.002;2022-11-06T07:55:20;96102.38;;;9.48;60.62
75521;BME280;64102;48.628;9.002;2022-11-06T07:57:46;96104.91;;;9.29;62.72
75521;BME280;64102;48.628;9.002;2022-11-06T08:00:12;96105.41;;;9.63;63.72
75521;BME280;64102;48.628;9.002;2022-11-06T08:02:38;96102.13;;;10.20;57.52
75521;BME280;64102;48.628;9.002;2022-11-06T08:05:04;96087.72;;;10.37;59.63
75521;BME280;64102;48.628;9.002;2022-11-06T08:07:29;96089.50;;;10.17;59.36
75521;BME280;64102;48.628;9.002;2022-11-06T08:09:55;96084.31;;;10.36;55.52
75521;BME280;64102;48.628;9.002;2022-11-06T08:12:20;96079.13;;;10.74;62.85
75521;BME280;64102;48.628;9.002;2022-11-06T08:14:45;96078.69;;;10.89;60.47
75521;BME280;64102;48.628;9.002;2022-11-06T08:17:11;96080.09;;;10.54;58.63
75521;BME280;64102;48.628;9.002;2022-11-06T08:19:36;96082.16;;;10.51;59.06
75521;BME280;64102;48.628;9.002;2022-11-06T08:22:01;96081.53;;;10.76;59.87
75521;BME280;64102;48.628;9.002;2022-11-06T08:24:27;96079.06;;;10.94;62.26
75521;BME280;64102;48.628;9.002;2022-11-06T08:26:53;96089.25;;;11.32;60.46
75521;BME280;64102;48.628;9.002;2022-11-06T08:29:18;96091.66;;;10.60;58.34
75521;BME280;64102;48.628;9.002;2022-11-06T08:31:43;96088.00;;;11.36;59.88
75521;BME280;64102;48.628;9.002;2022-11-06T08:34:09;96092.72;;;12.92;53.32
75521;BME280;64102;48.628;9.002;2022-11-06T08:36:40;96095.81;;;13.21;54.26
75521;BME280;64102;48.628;9.002;2022-11-06T08:39:07;96093.09;;;13.65;50.41
75521;BME280;64102;48.628;9.002;2022-11-06T08:41:32;96083.31;;;13.51;50.48
75521;BME280;64102;48.628;9.002;2022-11-06T08:43:58;96083.59;;;13.39;50.61
75521;BME280;64102;48.628;9.002;2022-11-06T08:46:24;96076.19;;;13.53;49.65
75521;BME280;64102;48.628;9.002;2022-11-06T08:48:49;96078.66;;;14.37;48.50
75521;BME280;64102;48.628;9.002;2022-11-06T08:51:14;96082.81;;;15.02;48.67
75521;BME280;64102;48.628;9.002;2022-11-06T08:53:40;96082.78;;;15.18;45.45
75521;BME280;64102;48.628;9.002;2022-11-06T08:56:05;96083.38;;;15.53;44.38
75521;BME280;64102;48.628;9.002;2022-11-06T08:58:31;96088.19;;;14.93;44.56
75521;BME280;64102;48.628;9.002;2022-11-06T09:00:56;96092.91;;;14.97;46.43
75521;BME280;64102;48.628;9.002;2022-11-06T09:03:22;96077.19;;;15.38;43.88
75521;BME280;64102;48.628;9.002;2022-11-06T09:05:47;96073.78;;;16.30;41.25
75521;BME280;64102;48.628;9.002;2022-11-06T09:08:13;96076.59;;;16.51;41.73
75521;BME280;64102;48.628;9.002;2022-11-06T09:10:39;96064.72;;;15.72;41.60
75521;BME280;64102;48.628;9.002;2022-11-06T09:13:05;96066.94;;;15.83;42.39
75521;BME280;64102;48.628;9.002;2022-11-06T09:15:31;96066.84;;;16.22;42.56
75521;BME280;64102;48.628;9.002;2022-11-06T09:17:57;96076.81;;;17.16;40.68
75521;BME280;64102;48.628;9.002;2022-11-06T09:20:23;96084.06;;;17.06;40.76
75521;BME280;64102;48.628;9.002;2022-11-06T09:22:49;96090.31;;;15.91;43.15
75521;BME280;64102;48.628;9.002;2022-11-06T09:25:15;96096.63;;;15.97;43.18
75521;BME280;64102;48.628;9.002;2022-11-06T09:27:48;96102.25;;;15.31;43.52
75521;BME280;64102;48.628;9.002;2022-11-06T09:30:16;96110.72;;;15.24;45.06
75521;BME280;64102;48.628;9.002;2022-11-06T09:32:57;96103.00;;;14.76;46.11
75521;BME280;64102;48.628;9.002;2022-11-06T09:35:24;96095.56;;;15.36;45.29
75521;BME280;64102;48.628;9.002;2022-11-06T09:37:50;96092.78;;;14.66;46.15
75521;BME280;64102;48.628;9.002;2022-11-06T09:45:54;96054.81;;;16.44;43.94
75521;BME280;64102;48.628;9.002;2022-11-06T09:48:41;96054.72;;;16.15;44.11
75521;BME280;64102;48.628;9.002;2022-11-06T09:53:47;96048.53;;;16.53;42.44
75521;BME280;64102;48.628;9.002;2022-11-06T09:56:17;96039.53;;;15.95;45.48
75521;BME280;64102;48.628;9.002;2022-11-06T09:58:45;96035.53;;;16.53;44.38
75521;BME280;64102;48.628;9.002;2022-11-06T10:01:20;96018.25;;;15.92;44.92
75521;BME280;64102;48.628;9.002;2022-11-06T10:03:53;96008.09;;;15.43;43.81
75521;BME280;64102;48.628;9.002;2022-11-06T10:06:21;96007.38;;;15.27;43.97
75521;BME280;64102;48.628;9.002;2022-11-06T10:08:47;96018.41;;;13.84;47.12
75521;BME280;64102;48.628;9.002;2022-11-06T10:11:21;96025.41;;;14.08;47.92
75521;BME280;64102;48.628;9.002;2022-11-06T10:13:57;96015.19;;;14.23;47.04
75521;BME280;64102;48.628;9.002;2022-11-06T10:24:18;96003.03;;;15.11;44.30
75521;BME280;64102;48.628;9.002;2022-11-06T10:26:50;96002.69;;;14.34;46.51
75521;BME280;64102;48.628;9.002;2022-11-06T10:32:21;96001.25;;;13.92;49.12
75521;BME280;64102;48.628;9.002;2022-11-06T10:34:59;95992.31;;;13.78;46.81
75521;BME280;64102;48.628;9.002;2022-11-06T10:37:31;95985.91;;;12.98;50.03
75521;BME280;64102;48.628;9.002;2022-11-06T10:40:04;95970.50;;;12.37;51.28
75521;BME280;64102;48.628;9.002;2022-11-06T10:42:35;95963.91;;;13.02;50.36
75521;BME280;64102;48.628;9.002;2022-11-06T10:45:16;95958.06;;;13.58;49.33
75521;BME280;64102;48.628;9.002;2022-11-06T10:47:45;95952.09;;;13.66;48.41
75521;BME280;64102;48.628;9.002;2022-11-06T10:50:14;95952.72;;;13.43;49.58
75521;BME280;64102;48.628;9.002;2022-11-06T10:53:02;95943.72;;;13.14;50.36
75521;BME280;64102;48.628;9.002;2022-11-06T10:58:18;95919.03;;;12.26;52.58
75521;BME280;64102;48.628;9.002;2022-11-06T11:00:45;95917.00;;;12.11;53.77
75521;BME280;64102;48.628;9.002;2022-11-06T11:03:31;95913.44;;;11.51;55.56
75521;BME280;64102;48.628;9.002;2022-11-06T11:05:57;95904.88;;;11.68;54.27
75521;BME280;64102;48.628;9.002;2022-11-06T11:08:43;95890.09;;;12.30;52.78
75521;BME280;64102;48.628;9.002;2022-11-06T11:13:37;95882.44;;;12.54;53.52
75521;BME280;64102;48.628;9.002;2022-11-06T11:16:03;95879.97;;;13.37;51.95
75521;BME280;64102;48.628;9.002;2022-11-06T11:18:29;95880.09;;;13.35;51.38
75521;BME280;64102;48.628;9.002;2022-11-06T11:21:06;95875.75;;;12.86;51.56
75521;BME280;64102;48.628;9.002;2022-11-06T11:23:31;95872.97;;;13.21;50.47
75521;BME280;64102;48.628;9.002;2022-11-06T11:26:21;95859.53;;;13.58;50.56
75521;BME280;64102;48.628;9.002;2022-11-06T11:28:59;95849.09;;;14.70;46.54
75521;BME280;64102;48.628;9.002;2022-11-06T11:31:34;95850.03;;;15.61;45.96
75521;BME280;64102;48.628;9.002;2022-11-06T11:34:13;95835.72;;;14.42;45.80
75521;BME280;64102;48.628;9.002;2022-11-06T11:39:13;95827.31;;;13.20;49.70
75521;BME280;64102;48.628;9.002;2022-11-06T11:41:38;95830.81;;;13.03;51.10
75521;BME280;64102;48.628;9.002;2022-11-06T11:44:12;95832.00;;;13.33;50.67
75521;BME280;64102;48.628;9.002;2022-11-06T11:46:49;95826.50;;;13.44;50.29
75521;BME280;64102;48.628;9.002;2022-11-06T11:49:32;95813.88;;;13.33;50.48
75521;BME280;64102;48.628;9.002;2022-11-06T11:52:02;95803.94;;;13.77;49.51
75521;BME280;64102;48.628;9.002;2022-11-06T11:55:03;95804.91;;;13.03;51.54
75521;BME280;64102;48.628;9.002;2022-11-06T11:57:30;95803.19;;;13.20;49.90
75521;BME280;64102;48.628;9.002;2022-11-06T12:00:02;95798.09;;;13.91;48.73
75521;BME280;64102;48.628;9.002;2022-11-06T12:02:43;95802.38;;;14.93;46.90
75521;BME280;64102;48.628;9.002;2022-11-06T12:05:12;95795.97;;;14.50;46.21
75521;BME280;64102;48.628;9.002;2022-11-06T12:07:42;95794.75;;;15.14;46.34
75521;BME280;64102;48.628;9.002;2022-11-06T12:12:52;95773.84;;;15.30;44.92
75521;BME280;64102;48.628;9.002;2022-11-06T12:15:24;95778.34;;;15.36;44.04
75521;BME280;64102;48.628;9.002;2022-11-06T12:18:00;95781.94;;;14.20;47.22
75521;BME280;64102;48.628;9.002;2022-11-06T12:20:53;95782.38;;;12.79;50.79
75521;BME280;64102;48.628;9.002;2022-11-06T12:28:44;95780.78;;;11.68;54.29
75521;BME280;64102;48.628;9.002;2022-11-06T12:31:22;95771.03;;;11.11;57.47
75521;BME280;64102;48.628;9.002;2022-11-06T12:33:55;95756.06;;;10.44;58.51
75521;BME280;64102;48.628;9.002;2022-11-06T12:36:23;95756.41;;;10.31;58.87
75521;BME280;64102;48.628;9.002;2022-11-06T12:38:54;95761.16;;;10.53;58.63
75521;BME280;64102;48.628;9.002;2022-11-06T12:41:25;95762.75;;;10.54;58.25
75521;BME280;64102;48.628;9.002;2022-11-06T12:43:54;95760.47;;;11.04;57.57
75521;BME280;64102;48.628;9.002;2022-11-06T12:49:22;95759.13;;;13.12;50.77
75521;BME280;64102;48.628;9.002;2022-11-06T12:52:12;95756.69;;;13.34;49.17
75521;BME280;64102;48.628;9.002;2022-11-06T13:00:18;95741.34;;;12.42;51.08
75521;BME280;64102;48.628;9.002;2022-11-06T13:05:29;95728.00;;;12.05;53.09
75521;BME280;64102;48.628;9.002;2022-11-06T13:10:50;95717.19;;;11.76;55.42
75521;BME280;64102;48.628;9.002;2022-11-06T13:16:05;95709.47;;;11.24;57.92
75521;BME280;64102;48.628;9.002;2022-11-06T13:18:41;95709.78;;;11.03;58.24
75521;BME280;64102;48.628;9.002;2022-11-06T13:21:14;95716.03;;;11.18;56.93
75521;BME280;64102;48.628;9.002;2022-11-06T13:23:57;95713.72;;;10.72;58.10
75521;BME280;64102;48.628;9.002;2022-11-06T13:26:53;95701.75;;;10.18;60.05
75521;BME280;64102;48.628;9.002;2022-11-06T13:29:24;95701.75;;;10.18;60.81
75521;BME280;64102;48.628;9.002;2022-11-06T13:31:54;95696.03;;;9.97;62.50
75521;BME280;64102;48.628;9.002;2022-11-06T13:34:25;95695.63;;;9.92;64.03
75521;BME280;64102;48.628;9.002;2022-11-06T13:36:53;95695.16;;;9.78;63.69
75521;BME280;64102;48.628;9.002;2022-11-06T13:39:31;95688.84;;;9.73;64.67
75521;BME280;64102;48.628;9.002;2022-11-06T13:41:58;95688.41;;;9.50;64.16
75521;BME280;64102;48.628;9.002;2022-11-06T13:44:24;95683.25;;;9.50;63.87
75521;BME280;64102;48.628;9.002;2022-11-06T13:47:08;95684.28;;;9.57;63.46
75521;BME280;64102;48.628;9.002;2022-11-06T13:49:48;95690.91;;;9.60;62.50
75521;BME280;64102;48.628;9.002;2022-11-06T13:58:17;95693.91;;;9.28;64.16
75521;BME280;64102;48.628;9.002;2022-11-06T14:01:14;95693.63;;;9.21;66.18
75521;BME280;64102;48.628;9.002;2022-11-06T14:03:51;95690.41;;;9.19;67.53
75521;BME280;64102;48.628;9.002;2022-11-06T14:06:24;95698.94;;;9.10;66.55
75521;BME280;64102;48.628;9.002;2022-11-06T14:08:54;95700.19;;;8.96;67.27
75521;BME280;64102;48.628;9.002;2022-11-06T14:11:32;95713.72;;;8.89;67.82
75521;BME280;64102;48.628;9.002;2022-11-06T14:14:03;95709.94;;;8.93;68.40
75521;BME280;64102;48.628;9.002;2022-11-06T14:16:33;95704.00;;;8.92;68.90
75521;BME280;64102;48.628;9.002;2022-11-06T14:19:13;95711.31;;;8.87;69.36
75521;BME280;64102;48.628;9.002;2022-11-06T14:26:46;95715.47;;;8.88;70.36
75521;BME280;64102;48.628;9.002;2022-11-06T14:40:34;95689.25;;;8.46;71.51
75521;BME280;64102;48.628;9.002;2022-11-06T14:43:00;95689.94;;;8.29;72.67
75521;BME280;64102;48.628;9.002;2022-11-06T14:45:26;95673.25;;;8.24;73.17
75521;BME280;64102;48.628;9.002;2022-11-06T14:47:53;95674.16;;;8.13;73.17
75521;BME280;64102;48.628;9.002;2022-11-06T14:53:15;95685.66;;;8.09;73.35
75521;BME280;64102;48.628;9.002;2022-11-06T14:55:55;95686.34;;;8.11;72.98
75521;BME280;64102;48.628;9.002;2022-11-06T14:58:31;95691.63;;;8.09;73.10
75521;BME280;64102;48.628;9.002;2022-11-06T15:01:00;95689.75;;;8.12;73.58
75521;BME280;64102;48.628;9.002;2022-11-06T15:16:34;95669.84;;;7.54;72.73